createdAt,value
2018-04-30T00:01:00.917Z,7.30
2018-04-30T00:03:29.364Z,6.93
2018-04-30T00:05:57.841Z,7.10
2018-04-30T00:08:26.284Z,7.70
2018-04-30T00:10:54.781Z,7.97
2018-04-30T00:13:23.275Z,7.90
2018-04-30T00:15:51.724Z,7.47
2018-04-30T00:18:20.183Z,7.43
2018-04-30T00:20:48.606Z,7.00
2018-04-30T00:23:17.068Z,6.97
2018-04-30T00:25:45.448Z,7.60
2018-04-30T00:28:13.868Z,7.97
2018-04-30T00:30:42.299Z,6.80
2018-04-30T00:33:10.746Z,6.97
2018-04-30T00:35:39.149Z,7.17
2018-04-30T00:38:07.540Z,6.93
2018-04-30T00:40:36.023Z,7.63
2018-04-30T00:43:04.450Z,7.93
2018-04-30T00:45:32.859Z,6.43
2018-04-30T00:48:01.309Z,6.00
2018-04-30T00:50:29.731Z,6.97
2018-04-30T00:52:58.129Z,5.13
2018-04-30T00:55:26.591Z,5.23
2018-04-30T00:57:55.035Z,5.00
2018-04-30T01:00:23.484Z,5.13
2018-04-30T01:02:51.952Z,5.70
2018-04-30T01:05:20.387Z,4.20
2018-04-30T01:07:48.863Z,5.17
2018-04-30T01:10:17.473Z,5.37
2018-04-30T01:12:46.219Z,5.77
2018-04-30T01:15:14.675Z,5.20
2018-04-30T01:17:43.183Z,5.10
2018-04-30T01:20:11.587Z,5.13
2018-04-30T01:22:40.056Z,5.53
2018-04-30T01:25:08.434Z,5.80
2018-04-30T01:27:36.866Z,5.73
2018-04-30T01:30:05.347Z,5.87
2018-04-30T01:32:33.816Z,5.43
2018-04-30T01:35:02.292Z,5.93
2018-04-30T01:37:30.700Z,6.30
2018-04-30T01:39:59.161Z,5.87
2018-04-30T01:42:27.547Z,6.43
2018-04-30T01:44:56.006Z,5.70
2018-04-30T01:47:24.440Z,6.03
2018-04-30T01:49:52.910Z,6.27
2018-04-30T01:52:21.394Z,5.87
2018-04-30T01:54:49.846Z,6.30
2018-04-30T01:57:18.289Z,6.20
2018-04-30T01:59:46.745Z,6.20
2018-04-30T02:02:15.127Z,5.57
2018-04-30T02:04:43.595Z,6.07
2018-04-30T02:07:12.007Z,5.37
2018-04-30T02:09:40.494Z,5.90
2018-04-30T02:12:08.878Z,5.40
2018-04-30T02:14:37.293Z,5.60
2018-04-30T02:17:05.794Z,6.43
2018-04-30T02:19:34.174Z,5.97
2018-04-30T02:22:02.715Z,6.13
2018-04-30T02:24:33.037Z,5.77
2018-04-30T02:27:01.507Z,6.93
2018-04-30T02:29:29.918Z,6.33
2018-04-30T02:31:58.723Z,6.63
2018-04-30T02:34:27.151Z,6.77
2018-04-30T02:36:55.564Z,6.50
2018-04-30T02:39:24.143Z,6.70
2018-04-30T02:41:52.509Z,6.77
2018-04-30T02:44:20.919Z,5.77
2018-04-30T02:46:49.384Z,6.43
2018-04-30T02:49:17.821Z,6.33
2018-04-30T02:51:46.237Z,6.37
2018-04-30T02:54:14.731Z,5.93
2018-04-30T02:56:43.347Z,6.10
2018-04-30T02:59:11.726Z,6.17
2018-04-30T03:01:40.178Z,6.27
2018-04-30T03:04:08.647Z,7.00
2018-04-30T03:06:37.119Z,6.97
2018-04-30T03:09:05.584Z,6.30
2018-04-30T03:11:33.957Z,6.03
2018-04-30T03:14:02.428Z,6.27
2018-04-30T03:16:30.848Z,6.13
2018-04-30T03:18:59.302Z,5.67
2018-04-30T03:21:27.720Z,6.87
2018-04-30T03:23:56.150Z,6.13
2018-04-30T03:26:24.533Z,6.23
2018-04-30T03:28:52.978Z,5.63
2018-04-30T03:31:21.428Z,6.23
2018-04-30T03:33:49.843Z,6.30
2018-04-30T03:36:18.285Z,6.30
2018-04-30T03:38:46.749Z,5.47
2018-04-30T03:41:15.155Z,7.23
2018-04-30T03:43:43.596Z,5.93
2018-04-30T03:46:11.980Z,6.03
2018-04-30T03:48:40.453Z,8.53
2018-04-30T03:51:08.883Z,8.27
2018-04-30T03:53:37.287Z,11.93
2018-04-30T03:56:05.757Z,6.80
2018-04-30T03:58:34.180Z,6.70
2018-04-30T04:01:14.418Z,6.17
2018-04-30T04:03:54.791Z,8.83
2018-04-30T04:06:32.813Z,6.30
2018-04-30T04:09:01.259Z,6.03
2018-04-30T04:11:29.691Z,6.63
2018-04-30T04:13:58.095Z,6.50
2018-04-30T04:16:26.501Z,8.70
2018-04-30T04:18:54.996Z,7.17
2018-04-30T04:21:23.437Z,6.13
2018-04-30T04:23:51.859Z,6.47
2018-04-30T04:26:20.310Z,6.87
2018-04-30T04:28:48.730Z,8.33
2018-04-30T04:31:17.179Z,6.43
2018-04-30T04:33:45.655Z,5.97
2018-04-30T04:36:14.050Z,5.80
2018-04-30T04:38:42.499Z,5.40
2018-04-30T04:41:10.963Z,7.13
2018-04-30T04:43:39.477Z,5.80
2018-04-30T04:46:07.907Z,6.10
2018-04-30T04:48:36.393Z,5.73
2018-04-30T04:51:04.787Z,5.70
2018-04-30T04:53:33.182Z,8.40
2018-04-30T04:56:01.633Z,5.43
2018-04-30T04:58:30.070Z,5.47
2018-04-30T05:00:58.477Z,6.87
2018-04-30T05:03:26.931Z,6.30
2018-04-30T05:05:55.335Z,6.00
2018-04-30T05:08:23.770Z,7.03
2018-04-30T05:10:52.262Z,6.83
2018-04-30T05:13:20.771Z,6.27
2018-04-30T05:15:49.137Z,6.80
2018-04-30T05:18:17.519Z,5.83
2018-04-30T05:20:45.999Z,5.70
2018-04-30T05:23:14.405Z,6.20
2018-04-30T05:25:42.783Z,7.30
2018-04-30T05:28:11.175Z,7.23
2018-04-30T05:30:39.555Z,6.93
2018-04-30T05:33:07.996Z,7.27
2018-04-30T05:35:36.385Z,7.17
2018-04-30T05:38:04.851Z,7.17
2018-04-30T05:40:33.270Z,7.47
2018-04-30T05:43:01.683Z,6.97
2018-04-30T05:45:30.141Z,7.50
2018-04-30T05:47:58.556Z,7.60
2018-04-30T05:50:27.099Z,7.63
2018-04-30T05:52:55.563Z,8.07
2018-04-30T05:55:23.987Z,8.23
2018-04-30T05:57:52.447Z,8.73
2018-04-30T06:00:20.843Z,9.23
2018-04-30T06:02:49.311Z,7.30
2018-04-30T06:05:17.731Z,8.17
2018-04-30T06:07:46.307Z,9.03
2018-04-30T06:10:14.799Z,8.27
2018-04-30T06:12:43.292Z,9.17
2018-04-30T06:15:11.765Z,7.63
2018-04-30T06:17:40.239Z,10.30
2018-04-30T06:20:08.699Z,8.63
2018-04-30T06:22:37.127Z,8.93
2018-04-30T06:25:05.529Z,8.23
2018-04-30T06:27:33.954Z,9.53
2018-04-30T06:30:02.345Z,7.80
2018-04-30T06:32:30.788Z,8.57
2018-04-30T06:34:59.166Z,9.10
2018-04-30T06:37:27.596Z,9.80
2018-04-30T06:39:55.974Z,7.93
2018-04-30T06:42:24.352Z,8.17
2018-04-30T06:44:52.779Z,8.87
2018-04-30T06:47:21.203Z,9.40
2018-04-30T06:49:49.635Z,8.47
2018-04-30T06:52:18.108Z,9.47
2018-04-30T06:54:46.501Z,8.90
2018-04-30T06:57:14.923Z,9.57
2018-04-30T06:59:43.359Z,10.10
2018-04-30T07:02:11.786Z,10.03
2018-04-30T07:04:40.236Z,9.27
2018-04-30T07:07:08.665Z,10.23
2018-04-30T07:09:37.192Z,9.60
2018-04-30T07:12:05.599Z,10.43
2018-04-30T07:14:34.044Z,11.50
2018-04-30T07:17:02.484Z,11.90
2018-04-30T07:19:31.038Z,10.87
2018-04-30T07:21:59.427Z,10.50
2018-04-30T07:24:27.870Z,10.27
2018-04-30T07:26:56.319Z,10.93
2018-04-30T07:29:24.759Z,8.73
2018-04-30T07:31:53.182Z,9.60
2018-04-30T07:34:21.562Z,9.03
2018-04-30T07:36:49.979Z,9.77
2018-04-30T07:39:18.432Z,9.60
2018-04-30T07:41:46.904Z,10.13
2018-04-30T07:44:15.335Z,8.47
2018-04-30T07:46:43.751Z,8.73
2018-04-30T07:49:12.242Z,8.93
2018-04-30T07:51:40.755Z,9.40
2018-04-30T07:54:09.176Z,9.27
2018-04-30T07:56:37.603Z,9.00
2018-04-30T07:59:06.049Z,9.33
2018-04-30T08:01:34.503Z,9.47
2018-04-30T08:04:03.079Z,8.07
2018-04-30T08:06:31.497Z,7.97
2018-04-30T08:08:59.987Z,8.83
2018-04-30T08:11:28.430Z,7.53
2018-04-30T08:13:56.904Z,8.17
2018-04-30T08:16:25.296Z,8.10
2018-04-30T08:18:53.829Z,8.23
2018-04-30T08:21:22.209Z,8.37
2018-04-30T08:23:50.639Z,7.63
2018-04-30T08:26:19.251Z,8.23
2018-04-30T08:28:47.653Z,8.07
2018-04-30T08:31:16.055Z,9.03
2018-04-30T08:33:44.505Z,8.30
2018-04-30T08:36:12.897Z,7.80
2018-04-30T08:38:41.359Z,7.30
2018-04-30T08:41:09.771Z,7.93
2018-04-30T08:43:38.186Z,8.00
2018-04-30T08:46:06.641Z,8.43
2018-04-30T08:48:35.087Z,8.37
2018-04-30T08:51:03.652Z,8.20
2018-04-30T08:53:32.080Z,7.70
2018-04-30T08:56:00.523Z,7.03
2018-04-30T08:58:29.000Z,7.33
2018-04-30T09:00:57.548Z,7.30
2018-04-30T09:03:26.029Z,9.30
2018-04-30T09:05:54.411Z,7.87
2018-04-30T09:08:22.804Z,8.20
2018-04-30T09:10:51.283Z,7.83
2018-04-30T09:13:19.715Z,7.97
2018-04-30T09:15:48.107Z,7.03
2018-04-30T09:18:16.523Z,7.83
2018-04-30T09:20:44.969Z,6.93
2018-04-30T09:23:13.354Z,8.80
2018-04-30T09:25:41.809Z,7.93
2018-04-30T09:28:10.273Z,6.97
2018-04-30T09:30:38.720Z,7.77
2018-04-30T09:33:07.101Z,6.32
2018-04-30T09:35:35.592Z,6.97
2018-04-30T09:38:04.056Z,7.03
2018-04-30T09:40:32.531Z,8.00
2018-04-30T09:43:00.944Z,7.32
2018-04-30T09:45:29.357Z,7.22
2018-04-30T09:47:57.806Z,7.07
2018-04-30T09:50:26.202Z,7.65
2018-04-30T09:52:54.631Z,6.43
2018-04-30T09:55:23.082Z,7.00
2018-04-30T09:57:51.592Z,6.12
2018-04-30T10:00:19.900Z,7.68
2018-04-30T10:02:48.386Z,6.50
2018-04-30T10:05:16.799Z,6.30
2018-04-30T10:07:46.227Z,6.45
2018-04-30T10:10:14.663Z,6.53
2018-04-30T10:12:43.056Z,6.45
2018-04-30T10:15:11.448Z,6.00
2018-04-30T10:17:39.937Z,6.07
2018-04-30T10:20:08.290Z,7.05
2018-04-30T10:22:36.769Z,6.15
2018-04-30T10:25:05.207Z,7.28
2018-04-30T10:27:33.660Z,7.40
2018-04-30T10:30:02.055Z,6.78
2018-04-30T10:32:30.496Z,6.57
2018-04-30T10:34:58.933Z,7.78
2018-04-30T10:37:27.420Z,7.50
2018-04-30T10:39:55.839Z,6.68
2018-04-30T10:42:24.220Z,6.97
2018-04-30T10:44:52.685Z,8.82
2018-04-30T10:47:21.091Z,9.73
2018-04-30T10:49:49.514Z,6.60
2018-04-30T10:52:17.927Z,5.82
2018-04-30T10:54:46.332Z,7.07
2018-04-30T10:57:14.753Z,6.10
2018-04-30T10:59:43.203Z,7.45
2018-04-30T11:02:11.657Z,6.78
2018-04-30T11:04:40.114Z,6.57
2018-04-30T11:07:08.495Z,6.62
2018-04-30T11:09:36.908Z,5.97
2018-04-30T11:12:05.408Z,5.35
2018-04-30T11:14:33.836Z,5.82
2018-04-30T11:17:02.224Z,5.68
2018-04-30T11:19:30.653Z,6.45
2018-04-30T11:21:59.043Z,6.60
2018-04-30T11:24:27.414Z,6.45
2018-04-30T11:26:55.872Z,5.10
2018-04-30T11:29:24.248Z,5.85
2018-04-30T11:31:52.693Z,5.97
2018-04-30T11:34:21.090Z,6.82
2018-04-30T11:36:49.547Z,6.60
2018-04-30T11:39:17.960Z,9.52
2018-04-30T11:41:46.407Z,6.03
2018-04-30T11:44:14.839Z,6.93
2018-04-30T11:46:43.326Z,7.22
2018-04-30T11:49:11.779Z,6.20
2018-04-30T11:51:40.217Z,7.43
2018-04-30T11:54:08.623Z,5.95
2018-04-30T11:56:37.088Z,6.07
2018-04-30T11:59:05.471Z,5.68
2018-04-30T12:01:33.865Z,6.93
2018-04-30T12:04:02.331Z,5.55
2018-04-30T12:06:30.754Z,4.93
2018-04-30T12:08:59.151Z,5.30
2018-04-30T12:11:27.604Z,6.07
2018-04-30T12:13:56.039Z,6.12
2018-04-30T12:16:24.467Z,6.90
2018-04-30T12:18:52.936Z,5.93
2018-04-30T12:21:21.394Z,5.85
2018-04-30T12:23:49.819Z,5.32
2018-04-30T12:26:18.301Z,5.10
2018-04-30T12:28:47.555Z,5.97
2018-04-30T12:31:16.049Z,5.37
2018-04-30T12:33:44.501Z,5.85
2018-04-30T12:36:12.944Z,6.32
2018-04-30T12:38:41.460Z,6.32
2018-04-30T12:41:09.904Z,5.62
2018-04-30T12:43:38.316Z,5.53
2018-04-30T12:46:06.779Z,5.85
2018-04-30T12:48:35.184Z,4.97
2018-04-30T12:51:03.647Z,5.60
2018-04-30T12:53:32.067Z,5.18
2018-04-30T12:56:00.486Z,5.72
2018-04-30T12:58:28.990Z,5.35
2018-04-30T13:00:57.412Z,6.15
2018-04-30T13:03:25.858Z,6.30
2018-04-30T13:05:54.263Z,7.18
2018-04-30T13:08:22.660Z,5.30
2018-04-30T13:10:51.183Z,6.47
2018-04-30T13:13:19.600Z,6.28
2018-04-30T13:15:48.111Z,5.47
2018-04-30T13:18:16.559Z,5.72
2018-04-30T13:20:44.957Z,5.03
2018-04-30T13:23:13.383Z,5.80
2018-04-30T13:25:41.792Z,5.33
2018-04-30T13:28:10.232Z,5.97
2018-04-30T13:30:38.777Z,5.10
2018-04-30T13:33:07.263Z,5.17
2018-04-30T13:35:35.681Z,5.47
2018-04-30T13:38:04.121Z,6.20
2018-04-30T13:40:32.508Z,5.57
2018-04-30T13:43:00.937Z,6.35
2018-04-30T13:45:29.323Z,5.87
2018-04-30T13:47:57.761Z,6.30
2018-04-30T13:50:26.164Z,5.60
2018-04-30T13:52:54.587Z,5.73
2018-04-30T13:55:23.042Z,6.40
2018-04-30T13:57:51.509Z,6.57
2018-04-30T14:00:20.215Z,5.43
2018-04-30T14:02:48.597Z,5.37
2018-04-30T14:05:17.032Z,6.07
2018-04-30T14:07:45.468Z,6.07
2018-04-30T14:10:13.885Z,6.03
2018-04-30T14:12:42.270Z,6.77
2018-04-30T14:15:10.689Z,6.23
2018-04-30T14:17:39.058Z,6.10
2018-04-30T14:20:07.488Z,5.90
2018-04-30T14:22:35.875Z,7.33
2018-04-30T14:25:04.506Z,5.80
2018-04-30T14:27:32.890Z,5.80
2018-04-30T14:30:01.383Z,6.60
2018-04-30T14:32:29.818Z,6.17
2018-04-30T14:34:58.251Z,5.97
2018-04-30T14:37:26.668Z,8.37
2018-04-30T14:39:55.070Z,7.20
2018-04-30T14:42:23.552Z,6.63
2018-04-30T14:44:52.005Z,6.47
2018-04-30T14:47:20.402Z,6.60
2018-04-30T14:49:48.915Z,5.87
2018-04-30T14:52:18.914Z,6.23
2018-04-30T14:54:47.319Z,6.47
2018-04-30T14:57:15.693Z,5.33
2018-04-30T14:59:44.136Z,7.47
2018-04-30T15:02:12.661Z,6.40
2018-04-30T15:04:41.056Z,6.33
2018-04-30T15:07:09.495Z,6.20
2018-04-30T15:09:37.880Z,5.27
2018-04-30T15:12:06.311Z,7.30
2018-04-30T15:14:34.718Z,5.50
2018-04-30T15:17:03.311Z,7.23
2018-04-30T15:19:31.831Z,5.50
2018-04-30T15:22:00.259Z,5.60
2018-04-30T15:24:28.693Z,7.20
2018-04-30T15:26:57.092Z,6.00
2018-04-30T15:29:25.469Z,6.10
2018-04-30T15:31:54.016Z,6.43
2018-04-30T15:34:22.576Z,5.60
2018-04-30T15:36:51.049Z,7.00
2018-04-30T15:39:19.783Z,6.13
2018-04-30T15:41:48.191Z,5.53
2018-04-30T15:44:16.592Z,7.90
2018-04-30T15:46:45.427Z,6.20
2018-04-30T15:49:13.822Z,6.03
2018-04-30T15:51:43.094Z,6.60
2018-04-30T15:54:12.221Z,5.60
2018-04-30T15:56:40.654Z,8.00
2018-04-30T15:59:09.131Z,5.57
2018-04-30T16:01:37.507Z,6.20
2018-04-30T16:04:05.942Z,6.17
2018-04-30T16:06:34.366Z,6.50
2018-04-30T16:09:02.792Z,5.10
2018-04-30T16:11:31.203Z,5.23
2018-04-30T16:13:59.813Z,6.27
2018-04-30T16:16:28.152Z,6.53
2018-04-30T16:18:56.545Z,6.33
2018-04-30T16:21:24.974Z,5.47
2018-04-30T16:23:53.356Z,6.07
2018-04-30T16:26:21.774Z,5.60
2018-04-30T16:28:50.246Z,6.37
2018-04-30T16:31:18.652Z,6.13
2018-04-30T16:33:47.185Z,6.20
2018-04-30T16:36:15.590Z,5.47
2018-04-30T16:38:44.031Z,5.70
2018-04-30T16:41:12.468Z,7.20
2018-04-30T16:43:40.898Z,7.30
2018-04-30T16:46:09.287Z,6.50
2018-04-30T16:48:37.710Z,5.67
2018-04-30T16:51:06.121Z,6.90
2018-04-30T16:53:34.538Z,7.17
2018-04-30T16:56:02.936Z,7.60
2018-04-30T16:58:31.337Z,6.70
2018-04-30T17:00:59.876Z,6.20
2018-04-30T17:03:28.263Z,7.53
2018-04-30T17:05:56.747Z,6.77
2018-04-30T17:08:25.137Z,7.37
2018-04-30T17:10:53.630Z,7.27
2018-04-30T17:13:22.007Z,7.43
2018-04-30T17:15:50.703Z,6.93
2018-04-30T17:18:19.116Z,9.83
2018-04-30T17:20:47.521Z,9.20
2018-04-30T17:23:16.426Z,8.20
2018-04-30T17:25:44.831Z,8.83
2018-04-30T17:28:13.235Z,8.63
2018-04-30T17:30:42.095Z,8.67
2018-04-30T17:33:10.623Z,7.40
2018-04-30T17:35:39.016Z,9.30
2018-04-30T17:38:07.463Z,9.67
2018-04-30T17:40:35.865Z,8.30
2018-04-30T17:43:04.246Z,9.73
2018-04-30T17:45:33.124Z,9.87
2018-04-30T17:48:01.520Z,8.50
2018-04-30T17:50:29.911Z,9.77
2018-04-30T17:52:58.712Z,7.97
2018-04-30T17:55:27.122Z,8.40
2018-04-30T17:57:55.529Z,7.97
2018-04-30T18:00:23.976Z,8.53
2018-04-30T18:02:52.407Z,7.77
2018-04-30T18:05:20.799Z,6.57
2018-04-30T18:07:49.220Z,7.10
2018-04-30T18:10:17.702Z,7.23
2018-04-30T18:12:46.477Z,6.17
2018-04-30T18:15:14.949Z,7.77
2018-04-30T18:17:43.377Z,6.73
2018-04-30T18:20:11.813Z,7.60
2018-04-30T18:22:40.232Z,8.97
2018-04-30T18:25:08.615Z,7.33
2018-04-30T18:27:37.080Z,7.17
2018-04-30T18:30:08.735Z,8.17
2018-04-30T18:32:37.215Z,9.27
2018-04-30T18:35:05.604Z,8.20
2018-04-30T18:37:34.109Z,11.43
2018-04-30T18:40:02.495Z,9.93
2018-04-30T18:42:30.891Z,11.80
2018-04-30T18:44:59.335Z,11.70
2018-04-30T18:47:27.755Z,10.50
2018-04-30T18:49:56.260Z,8.93
2018-04-30T18:52:24.743Z,10.37
2018-04-30T18:54:53.290Z,11.10
2018-04-30T18:57:21.736Z,10.63
2018-04-30T18:59:50.171Z,10.30
2018-04-30T19:02:18.660Z,10.07
2018-04-30T19:04:47.065Z,10.70
2018-04-30T19:07:15.495Z,10.67
2018-04-30T19:09:43.913Z,9.47
2018-04-30T19:12:12.313Z,9.63
2018-04-30T19:14:40.770Z,10.43
2018-04-30T19:17:09.198Z,9.40
2018-04-30T19:19:37.636Z,9.37
2018-04-30T19:22:06.089Z,8.57
2018-04-30T19:24:34.467Z,8.87
2018-04-30T19:27:02.921Z,8.87
2018-04-30T19:29:31.328Z,8.00
2018-04-30T19:31:59.752Z,9.80
2018-04-30T19:34:28.201Z,11.50
2018-04-30T19:36:56.616Z,11.20
2018-04-30T19:39:25.023Z,11.53
2018-04-30T19:41:53.459Z,9.93
2018-04-30T19:44:21.894Z,10.13
2018-04-30T19:46:50.409Z,10.40
2018-04-30T19:49:18.736Z,8.60
2018-04-30T19:51:47.206Z,9.00
2018-04-30T19:54:15.679Z,8.33
2018-04-30T19:56:44.060Z,7.63
2018-04-30T19:59:12.464Z,7.80
2018-04-30T20:01:40.936Z,8.40
2018-04-30T20:04:09.376Z,8.13
2018-04-30T20:06:37.824Z,7.47
2018-04-30T20:09:07.120Z,7.73
2018-04-30T20:11:35.586Z,7.80
2018-04-30T20:14:04.024Z,7.83
2018-04-30T20:16:32.452Z,6.57
2018-04-30T20:19:00.875Z,8.10
2018-04-30T20:21:29.273Z,7.73
2018-04-30T20:23:57.743Z,7.90
2018-04-30T20:26:26.129Z,8.40
2018-04-30T20:28:54.520Z,8.90
2018-04-30T20:31:22.941Z,8.57
2018-04-30T20:33:51.319Z,8.70
2018-04-30T20:36:19.753Z,9.37
2018-04-30T20:38:48.161Z,8.37
2018-04-30T20:41:16.588Z,8.80
2018-04-30T20:43:45.039Z,10.50
2018-04-30T20:46:13.487Z,9.57
2018-04-30T20:48:41.867Z,8.77
2018-04-30T20:51:10.289Z,8.93
2018-04-30T20:53:38.673Z,9.80
2018-04-30T20:56:07.122Z,8.60
2018-04-30T20:58:35.531Z,8.50
2018-04-30T21:01:03.923Z,9.07
2018-04-30T21:03:32.397Z,9.57
2018-04-30T21:06:00.974Z,8.67
2018-04-30T21:08:29.459Z,8.60
2018-04-30T21:10:57.893Z,9.00
2018-04-30T21:13:26.291Z,9.27
2018-04-30T21:15:54.749Z,8.83
2018-04-30T21:18:23.139Z,8.30
2018-04-30T21:20:51.566Z,8.27
2018-04-30T21:23:19.972Z,9.03
2018-04-30T21:25:48.450Z,8.17
2018-04-30T21:28:16.831Z,9.57
2018-04-30T21:30:45.384Z,8.67
2018-04-30T21:33:13.943Z,9.17
2018-04-30T21:35:42.361Z,7.77
2018-04-30T21:38:10.802Z,8.53
2018-04-30T21:40:39.256Z,9.10
2018-04-30T21:43:07.674Z,8.57
2018-04-30T21:45:36.130Z,7.93
2018-04-30T21:48:04.553Z,9.23
2018-04-30T21:50:32.938Z,8.73
2018-04-30T21:53:01.387Z,8.07
2018-04-30T21:55:29.793Z,8.77
2018-04-30T21:57:58.235Z,8.90
2018-04-30T22:00:28.540Z,9.30
2018-04-30T22:02:56.975Z,8.27
2018-04-30T22:05:25.374Z,9.40
2018-04-30T22:07:53.784Z,9.10
2018-04-30T22:10:22.235Z,8.37
2018-04-30T22:12:50.760Z,9.07
2018-04-30T22:15:19.200Z,8.63
2018-04-30T22:17:47.676Z,8.80
2018-04-30T22:20:16.154Z,9.70
2018-04-30T22:22:44.599Z,8.93
2018-04-30T22:25:13.097Z,8.53
2018-04-30T22:27:41.496Z,8.37
2018-04-30T22:30:09.899Z,8.63
2018-04-30T22:32:38.385Z,8.60
2018-04-30T22:35:06.996Z,8.73
2018-04-30T22:37:35.439Z,8.83
2018-04-30T22:40:03.895Z,7.87
2018-04-30T22:42:32.805Z,7.97
2018-04-30T22:45:01.306Z,8.13
2018-04-30T22:47:29.787Z,8.03
2018-04-30T22:49:58.305Z,8.83
2018-04-30T22:52:26.729Z,7.50
2018-04-30T22:54:55.127Z,7.53
2018-04-30T22:57:23.590Z,8.00
2018-04-30T22:59:52.022Z,8.00
2018-04-30T23:02:20.424Z,8.47
2018-04-30T23:04:48.880Z,8.53
2018-04-30T23:07:17.280Z,7.33
2018-04-30T23:09:45.762Z,7.97
2018-04-30T23:12:14.206Z,7.53
2018-04-30T23:14:42.816Z,6.77
2018-04-30T23:17:11.251Z,7.13
2018-04-30T23:19:39.679Z,7.00
2018-04-30T23:22:08.137Z,6.43
2018-04-30T23:24:36.687Z,8.27
2018-04-30T23:27:05.089Z,6.60
2018-04-30T23:29:33.599Z,7.13
2018-04-30T23:32:02.041Z,6.73
2018-04-30T23:34:30.488Z,7.13
2018-04-30T23:36:59.041Z,6.57
2018-04-30T23:39:27.386Z,7.20
2018-04-30T23:41:55.815Z,6.07
2018-04-30T23:44:24.256Z,6.63
2018-04-30T23:46:52.716Z,7.20
2018-04-30T23:49:21.130Z,6.60
2018-04-30T23:51:49.585Z,7.07
2018-04-30T23:54:17.987Z,7.40
2018-04-30T23:56:46.438Z,6.67
2018-04-30T23:59:14.879Z,7.20
